sensor_id;sensor_type;location;lat;lon;timestamp;pressure;altitude;pressure_sealevel;temperature;humidity
10909;BME280;5507;48.548;8.720;2022-12-29T00:01:21;72281.69;;;8.64;100.00
10909;BME280;5507;48.548;8.720;2022-12-29T00:25:16;72271.00;;;8.59;100.00
10909;BME280;5507;48.548;8.720;2022-12-29T00:32:16;72295.91;;;8.78;100.00
10909;BME280;5507;48.548;8.720;2022-12-29T00:35:29;72315.78;;;8.96;100.00
10909;BME280;5507;48.548;8.720;2022-12-29T00:38:37;72347.69;;;9.21;100.00
10909;BME280;5507;48.548;8.720;2022-12-29T00:42:05;72364.25;;;9.38;100.00
10909;BME280;5507;48.548;8.720;2022-12-29T00:44:52;72334.28;;;9.16;100.00
10909;BME280;5507;48.548;8.720;2022-12-29T01:05:25;72378.88;;;9.50;100.00
10909;BME280;5507;48.548;8.720;2022-12-29T01:08:28;72391.50;;;9.59;99.69
10909;BME280;5507;48.548;8.720;2022-12-29T01:12:01;72435.13;;;9.94;97.71
10909;BME280;5507;48.548;8.720;2022-12-29T01:18:31;72421.50;;;9.87;97.57
10909;BME280;5507;48.548;8.720;2022-12-29T01:21:51;72424.22;;;9.87;97.03
10909;BME280;5507;48.548;8.720;2022-12-29T01:28:04;72383.91;;;9.52;96.70
10909;BME280;5507;48.548;8.720;2022-12-29T01:30:36;72380.41;;;9.49;97.08
10909;BME280;5507;48.548;8.720;2022-12-29T01:33:11;72440.78;;;10.04;93.91
10909;BME280;5507;48.548;8.720;2022-12-29T01:35:37;72417.63;;;9.86;94.15
10909;BME280;5507;48.548;8.720;2022-12-29T01:38:04;72430.47;;;9.90;93.05
10909;BME280;5507;48.548;8.720;2022-12-29T01:40:29;72446.84;;;10.11;93.53
10909;BME280;5507;48.548;8.720;2022-12-29T01:42:54;72444.69;;;10.05;97.14
10909;BME280;5507;48.548;8.720;2022-12-29T01:45:20;72441.38;;;10.04;95.94
10909;BME280;5507;48.548;8.720;2022-12-29T01:47:48;72437.09;;;9.98;95.11
10909;BME280;5507;48.548;8.720;2022-12-29T01:53:05;72452.88;;;10.12;94.05
10909;BME280;5507;48.548;8.720;2022-12-29T01:55:37;72444.88;;;10.07;94.17
10909;BME280;5507;48.548;8.720;2022-12-29T01:58:06;72454.63;;;10.13;94.51
10909;BME280;5507;48.548;8.720;2022-12-29T02:00:32;72453.84;;;10.10;95.29
10909;BME280;5507;48.548;8.720;2022-12-29T02:02:57;72458.75;;;10.17;95.03
10909;BME280;5507;48.548;8.720;2022-12-29T02:05:38;72456.78;;;10.20;95.53
10909;BME280;5507;48.548;8.720;2022-12-29T02:08:05;72487.38;;;10.42;92.85
10909;BME280;5507;48.548;8.720;2022-12-29T02:10:32;72498.31;;;10.56;91.42
10909;BME280;5507;48.548;8.720;2022-12-29T02:12:59;72509.81;;;10.63;91.49
10909;BME280;5507;48.548;8.720;2022-12-29T02:15:45;72516.22;;;10.69;90.92
10909;BME280;5507;48.548;8.720;2022-12-29T02:37:20;72562.06;;;11.11;88.25
10909;BME280;5507;48.548;8.720;2022-12-29T02:39:52;72551.34;;;10.99;89.63
10909;BME280;5507;48.548;8.720;2022-12-29T02:45:07;72538.25;;;10.86;89.05
10909;BME280;5507;48.548;8.720;2022-12-29T02:50:25;72559.91;;;11.04;89.32
10909;BME280;5507;48.548;8.720;2022-12-29T02:53:00;72565.16;;;11.09;89.23
10909;BME280;5507;48.548;8.720;2022-12-29T02:55:26;72563.25;;;11.12;89.02
10909;BME280;5507;48.548;8.720;2022-12-29T02:58:21;72556.00;;;11.03;89.90
10909;BME280;5507;48.548;8.720;2022-12-29T03:03:59;72564.78;;;11.11;89.08
10909;BME280;5507;48.548;8.720;2022-12-29T03:10:10;72558.16;;;11.03;90.77
10909;BME280;5507;48.548;8.720;2022-12-29T03:12:34;72548.41;;;10.97;91.09
10909;BME280;5507;48.548;8.720;2022-12-29T03:15:29;72535.34;;;10.83;92.67
10909;BME280;5507;48.548;8.720;2022-12-29T03:18:23;72577.06;;;11.21;90.54
10909;BME280;5507;48.548;8.720;2022-12-29T03:20:54;72588.75;;;11.24;90.89
10909;BME280;5507;48.548;8.720;2022-12-29T03:23:23;72578.44;;;11.25;90.92
10909;BME280;5507;48.548;8.720;2022-12-29T03:25:54;72591.88;;;11.30;91.03
10909;BME280;5507;48.548;8.720;2022-12-29T03:28:27;72587.22;;;11.33;91.29
10909;BME280;5507;48.548;8.720;2022-12-29T03:30:55;72594.41;;;11.34;90.87
10909;BME280;5507;48.548;8.720;2022-12-29T03:33:24;72582.34;;;11.26;91.16
10909;BME280;5507;48.548;8.720;2022-12-29T03:35:53;72584.09;;;11.28;91.68
10909;BME280;5507;48.548;8.720;2022-12-29T03:38:41;72575.31;;;11.20;92.93
10909;BME280;5507;48.548;8.720;2022-12-29T03:41:11;72574.53;;;11.17;93.35
10909;BME280;5507;48.548;8.720;2022-12-29T03:43:39;72566.94;;;11.10;93.23
10909;BME280;5507;48.548;8.720;2022-12-29T03:46:05;72573.75;;;11.14;93.37
10909;BME280;5507;48.548;8.720;2022-12-29T03:48:30;72553.06;;;11.01;94.46
10909;BME280;5507;48.548;8.720;2022-12-29T03:50:58;72541.75;;;10.89;96.04
10909;BME280;5507;48.548;8.720;2022-12-29T03:53:23;72534.94;;;10.85;97.21
10909;BME280;5507;48.548;8.720;2022-12-29T03:55:49;72513.91;;;10.67;98.85
10909;BME280;5507;48.548;8.720;2022-12-29T03:58:14;72531.03;;;10.77;97.18
10909;BME280;5507;48.548;8.720;2022-12-29T04:00:40;72532.03;;;10.83;97.70
10909;BME280;5507;48.548;8.720;2022-12-29T04:03:05;72532.22;;;10.78;98.48
10909;BME280;5507;48.548;8.720;2022-12-29T04:05:30;72529.88;;;10.76;98.98
10909;BME280;5507;48.548;8.720;2022-12-29T04:07:56;72537.88;;;10.88;98.00
10909;BME280;5507;48.548;8.720;2022-12-29T04:10:21;72535.94;;;10.84;98.89
10909;BME280;5507;48.548;8.720;2022-12-29T04:12:47;72546.44;;;10.93;97.86
10909;BME280;5507;48.548;8.720;2022-12-29T04:15:12;72551.72;;;10.97;98.10
10909;BME280;5507;48.548;8.720;2022-12-29T04:17:38;72540.81;;;10.90;99.14
10909;BME280;5507;48.548;8.720;2022-12-29T04:20:03;72524.41;;;10.76;100.00
10909;BME280;5507;48.548;8.720;2022-12-29T04:22:47;72522.69;;;10.74;99.93
10909;BME280;5507;48.548;8.720;2022-12-29T04:25:13;72522.09;;;10.74;100.00
10909;BME280;5507;48.548;8.720;2022-12-29T04:27:38;72533.59;;;10.82;99.66
10909;BME280;5507;48.548;8.720;2022-12-29T04:30:04;72534.94;;;10.85;100.00
10909;BME280;5507;48.548;8.720;2022-12-29T04:32:29;72532.63;;;10.83;100.00
10909;BME280;5507;48.548;8.720;2022-12-29T04:34:54;72544.50;;;10.89;100.00
10909;BME280;5507;48.548;8.720;2022-12-29T04:37:20;72549.97;;;10.96;99.21
10909;BME280;5507;48.548;8.720;2022-12-29T04:39:45;72548.00;;;10.92;98.78
10909;BME280;5507;48.548;8.720;2022-12-29T04:42:10;72556.97;;;11.02;98.38
10909;BME280;5507;48.548;8.720;2022-12-29T04:44:35;72572.19;;;11.15;97.61
10909;BME280;5507;48.548;8.720;2022-12-29T04:47:01;72575.09;;;11.17;96.98
10909;BME280;5507;48.548;8.720;2022-12-29T04:49:26;72563.41;;;11.07;98.76
10909;BME280;5507;48.548;8.720;2022-12-29T04:51:56;72556.59;;;11.04;98.49
10909;BME280;5507;48.548;8.720;2022-12-29T04:54:21;72569.25;;;11.12;96.65
10909;BME280;5507;48.548;8.720;2022-12-29T04:56:46;72568.09;;;11.11;96.68
10909;BME280;5507;48.548;8.720;2022-12-29T04:59:11;72555.22;;;11.00;99.12
10909;BME280;5507;48.548;8.720;2022-12-29T05:01:37;72546.44;;;10.93;99.30
10909;BME280;5507;48.548;8.720;2022-12-29T05:04:02;72543.53;;;10.90;100.00
10909;BME280;5507;48.548;8.720;2022-12-29T05:06:28;72540.03;;;10.87;100.00
10909;BME280;5507;48.548;8.720;2022-12-29T05:08:53;72523.84;;;10.75;100.00
10909;BME280;5507;48.548;8.720;2022-12-29T05:11:18;72537.66;;;10.85;100.00
10909;BME280;5507;48.548;8.720;2022-12-29T05:13:47;72536.50;;;10.84;100.00
10909;BME280;5507;48.548;8.720;2022-12-29T05:16:12;72542.94;;;10.90;99.97
10909;BME280;5507;48.548;8.720;2022-12-29T05:18:38;72552.88;;;10.98;98.80
10909;BME280;5507;48.548;8.720;2022-12-29T05:21:03;72558.34;;;11.05;98.79
10909;BME280;5507;48.548;8.720;2022-12-29T05:23:28;72546.66;;;10.95;100.00
10909;BME280;5507;48.548;8.720;2022-12-29T05:25:54;72552.09;;;10.95;99.37
10909;BME280;5507;48.548;8.720;2022-12-29T05:28:19;72540.03;;;10.87;99.33
10909;BME280;5507;48.548;8.720;2022-12-29T05:30:48;72560.88;;;11.03;100.00
10909;BME280;5507;48.548;8.720;2022-12-29T05:33:13;72548.22;;;10.94;100.00
10909;BME280;5507;48.548;8.720;2022-12-29T05:35:38;72569.66;;;11.10;99.16
10909;BME280;5507;48.548;8.720;2022-12-29T05:38:04;72551.72;;;10.97;100.00
10909;BME280;5507;48.548;8.720;2022-12-29T05:40:29;72549.75;;;11.00;100.00
10909;BME280;5507;48.548;8.720;2022-12-29T05:42:54;72550.94;;;10.94;99.41
10909;BME280;5507;48.548;8.720;2022-12-29T05:45:19;72545.47;;;10.94;100.00
10909;BME280;5507;48.548;8.720;2022-12-29T05:47:45;72537.25;;;10.80;99.52
10909;BME280;5507;48.548;8.720;2022-12-29T05:50:10;72557.16;;;11.04;100.00
10909;BME280;5507;48.548;8.720;2022-12-29T05:52:35;72552.50;;;11.00;97.35
10909;BME280;5507;48.548;8.720;2022-12-29T05:55:01;72568.69;;;11.12;98.63
10909;BME280;5507;48.548;8.720;2022-12-29T05:57:26;72556.38;;;11.01;98.40
10909;BME280;5507;48.548;8.720;2022-12-29T05:59:51;72578.44;;;11.18;96.65
10909;BME280;5507;48.548;8.720;2022-12-29T06:02:17;72559.53;;;11.06;97.09
10909;BME280;5507;48.548;8.720;2022-12-29T06:04:42;72587.41;;;11.28;95.29
10909;BME280;5507;48.548;8.720;2022-12-29T06:07:07;72580.00;;;11.24;96.20
10909;BME280;5507;48.548;8.720;2022-12-29T06:09:32;72571.97;;;11.12;95.46
10909;BME280;5507;48.548;8.720;2022-12-29T06:11:58;72579.41;;;11.23;95.86
10909;BME280;5507;48.548;8.720;2022-12-29T06:14:23;72569.47;;;11.15;97.11
10909;BME280;5507;48.548;8.720;2022-12-29T06:16:48;72583.28;;;11.24;95.28
10909;BME280;5507;48.548;8.720;2022-12-29T06:19:13;72577.06;;;11.21;94.55
10909;BME280;5507;48.548;8.720;2022-12-29T06:21:39;72579.00;;;11.18;95.55
10909;BME280;5507;48.548;8.720;2022-12-29T06:24:04;72559.53;;;11.06;96.94
10909;BME280;5507;48.548;8.720;2022-12-29T06:26:30;72565.97;;;11.12;94.69
10909;BME280;5507;48.548;8.720;2022-12-29T06:28:55;72567.31;;;11.08;95.82
10909;BME280;5507;48.548;8.720;2022-12-29T06:31:21;72595.97;;;11.33;93.96
10909;BME280;5507;48.548;8.720;2022-12-29T06:33:46;72591.88;;;11.30;94.51
10909;BME280;5507;48.548;8.720;2022-12-29T06:36:11;72598.50;;;11.38;93.30
10909;BME280;5507;48.548;8.720;2022-12-29T06:38:37;72596.78;;;11.36;92.28
10909;BME280;5507;48.548;8.720;2022-12-29T06:41:02;72604.75;;;11.41;91.90
10909;BME280;5507;48.548;8.720;2022-12-29T06:43:27;72597.94;;;11.37;90.86
10909;BME280;5507;48.548;8.720;2022-12-29T06:45:52;72598.91;;;11.36;91.29
10909;BME280;5507;48.548;8.720;2022-12-29T06:48:18;72581.56;;;11.23;91.93
10909;BME280;5507;48.548;8.720;2022-12-29T06:50:43;72585.06;;;11.26;93.43
10909;BME280;5507;48.548;8.720;2022-12-29T06:53:08;72591.28;;;11.29;91.05
10909;BME280;5507;48.548;8.720;2022-12-29T06:55:34;72579.19;;;11.21;94.43
10909;BME280;5507;48.548;8.720;2022-12-29T06:57:59;72564.00;;;11.08;94.25
10909;BME280;5507;48.548;8.720;2022-12-29T07:00:26;72555.63;;;10.98;94.24
10909;BME280;5507;48.548;8.720;2022-12-29T07:02:51;72546.84;;;10.91;94.73
10909;BME280;5507;48.548;8.720;2022-12-29T07:05:17;72568.09;;;11.11;91.09
10909;BME280;5507;48.548;8.720;2022-12-29T07:07:43;72552.88;;;10.98;93.26
10909;BME280;5507;48.548;8.720;2022-12-29T07:10:08;72572.38;;;11.17;90.41
10909;BME280;5507;48.548;8.720;2022-12-29T07:12:33;72592.47;;;11.30;89.69
10909;BME280;5507;48.548;8.720;2022-12-29T07:14:59;72558.34;;;11.05;90.74
10909;BME280;5507;48.548;8.720;2022-12-29T07:17:24;72573.94;;;11.16;90.07
10909;BME280;5507;48.548;8.720;2022-12-29T07:19:49;72534.56;;;10.87;91.39
10909;BME280;5507;48.548;8.720;2022-12-29T07:22:15;72576.88;;;11.19;89.89
10909;BME280;5507;48.548;8.720;2022-12-29T07:24:40;72553.47;;;10.99;90.60
10909;BME280;5507;48.548;8.720;2022-12-29T07:27:05;72569.47;;;11.15;89.77
10909;BME280;5507;48.548;8.720;2022-12-29T07:29:31;72564.19;;;11.03;90.78
10909;BME280;5507;48.548;8.720;2022-12-29T07:31:56;72565.75;;;11.09;89.57
10909;BME280;5507;48.548;8.720;2022-12-29T07:34:21;72572.38;;;11.17;88.91
10909;BME280;5507;48.548;8.720;2022-12-29T07:36:47;72585.06;;;11.26;88.80
10909;BME280;5507;48.548;8.720;2022-12-29T07:39:12;72593.06;;;11.31;88.53
10909;BME280;5507;48.548;8.720;2022-12-29T07:41:37;72600.88;;;11.40;86.79
10909;BME280;5507;48.548;8.720;2022-12-29T07:44:03;72614.91;;;11.52;86.25
10909;BME280;5507;48.548;8.720;2022-12-29T07:46:28;72597.94;;;11.37;87.30
10909;BME280;5507;48.548;8.720;2022-12-29T07:48:53;72574.16;;;11.19;88.49
10909;BME280;5507;48.548;8.720;2022-12-29T07:51:19;72597.34;;;11.37;86.66
10909;BME280;5507;48.548;8.720;2022-12-29T07:53:44;72610.22;;;11.48;85.40
10909;BME280;5507;48.548;8.720;2022-12-29T07:56:09;72627.59;;;11.60;83.98
10909;BME280;5507;48.548;8.720;2022-12-29T07:58:35;72638.69;;;11.70;83.79
10909;BME280;5507;48.548;8.720;2022-12-29T08:01:00;72616.88;;;11.56;84.07
10909;BME280;5507;48.548;8.720;2022-12-29T08:03:25;72638.53;;;11.75;84.52
10909;BME280;5507;48.548;8.720;2022-12-29T08:05:51;72637.16;;;11.71;82.91
10909;BME280;5507;48.548;8.720;2022-12-29T08:08:16;72659.41;;;11.90;82.03
10909;BME280;5507;48.548;8.720;2022-12-29T08:10:42;72658.44;;;11.92;82.53
10909;BME280;5507;48.548;8.720;2022-12-29T08:13:07;72654.94;;;11.89;83.32
10909;BME280;5507;48.548;8.720;2022-12-29T08:15:33;72667.59;;;11.97;82.62
10909;BME280;5507;48.548;8.720;2022-12-29T08:17:58;72687.31;;;12.12;80.89
10909;BME280;5507;48.548;8.720;2022-12-29T08:20:24;72696.09;;;12.20;81.14
10909;BME280;5507;48.548;8.720;2022-12-29T08:22:50;72696.47;;;12.18;81.27
10909;BME280;5507;48.548;8.720;2022-12-29T08:25:16;72711.16;;;12.37;80.50
10909;BME280;5507;48.548;8.720;2022-12-29T08:27:41;72719.91;;;12.45;79.55
10909;BME280;5507;48.548;8.720;2022-12-29T08:30:07;72710.34;;;12.34;80.88
10909;BME280;5507;48.548;8.720;2022-12-29T08:32:33;72701.38;;;12.24;80.95
10909;BME280;5507;48.548;8.720;2022-12-29T08:34:58;72710.94;;;12.35;80.89
10909;BME280;5507;48.548;8.720;2022-12-29T08:37:24;72704.88;;;12.27;81.19
10909;BME280;5507;48.548;8.720;2022-12-29T08:39:49;72713.88;;;12.37;80.91
10909;BME280;5507;48.548;8.720;2022-12-29T08:42:14;72721.66;;;12.46;79.55
10909;BME280;5507;48.548;8.720;2022-12-29T08:44:39;72712.88;;;12.39;79.93
10909;BME280;5507;48.548;8.720;2022-12-29T08:47:05;72727.34;;;12.49;80.02
10909;BME280;5507;48.548;8.720;2022-12-29T08:49:31;72725.56;;;12.47;80.52
10909;BME280;5507;48.548;8.720;2022-12-29T08:51:58;72729.66;;;12.51;79.54
10909;BME280;5507;48.548;8.720;2022-12-29T08:54:23;72724.78;;;12.44;80.61
10909;BME280;5507;48.548;8.720;2022-12-29T08:56:48;72729.84;;;12.46;79.74
10909;BME280;5507;48.548;8.720;2022-12-29T08:59:14;72727.13;;;12.46;81.73
10909;BME280;5507;48.548;8.720;2022-12-29T09:01:39;72716.78;;;12.40;81.43
10909;BME280;5507;48.548;8.720;2022-12-29T09:04:05;72726.53;;;12.46;81.18
10909;BME280;5507;48.548;8.720;2022-12-29T09:06:31;72738.25;;;12.56;81.12
10909;BME280;5507;48.548;8.720;2022-12-29T09:08:56;72750.19;;;12.69;80.33
10909;BME280;5507;48.548;8.720;2022-12-29T09:11:24;72753.69;;;12.72;79.86
10909;BME280;5507;48.548;8.720;2022-12-29T09:13:49;72754.09;;;12.70;80.91
10909;BME280;5507;48.548;8.720;2022-12-29T09:16:15;72750.38;;;12.64;81.42
10909;BME280;5507;48.548;8.720;2022-12-29T09:18:42;72742.16;;;12.64;81.70
10909;BME280;5507;48.548;8.720;2022-12-29T09:21:10;72757.19;;;12.75;81.43
10909;BME280;5507;48.548;8.720;2022-12-29T09:23:35;72779.66;;;12.89;82.17
10909;BME280;5507;48.548;8.720;2022-12-29T09:26:01;72775.16;;;12.88;80.73
10909;BME280;5507;48.548;8.720;2022-12-29T09:28:26;72782.78;;;12.94;81.11
10909;BME280;5507;48.548;8.720;2022-12-29T09:30:54;72779.47;;;12.94;80.53
10909;BME280;5507;48.548;8.720;2022-12-29T09:39:22;72814.47;;;13.22;80.10
10909;BME280;5507;48.548;8.720;2022-12-29T09:42:05;72788.63;;;12.99;81.47
10909;BME280;5507;48.548;8.720;2022-12-29T09:47:19;72750.19;;;12.69;85.28
10909;BME280;5507;48.548;8.720;2022-12-29T09:52:20;72749.59;;;12.68;85.00
10909;BME280;5507;48.548;8.720;2022-12-29T09:55:00;72744.31;;;12.63;85.24
10909;BME280;5507;48.548;8.720;2022-12-29T09:57:53;72745.50;;;12.65;85.80
10909;BME280;5507;48.548;8.720;2022-12-29T10:00:22;72740.22;;;12.60;85.58
10909;BME280;5507;48.548;8.720;2022-12-29T10:02:51;72746.09;;;12.65;85.88
10909;BME280;5507;48.548;8.720;2022-12-29T10:08:40;72762.28;;;12.77;85.41
10909;BME280;5507;48.548;8.720;2022-12-29T10:19:33;72768.34;;;12.84;85.71
10909;BME280;5507;48.548;8.720;2022-12-29T10:22:17;72755.63;;;12.76;85.59
10909;BME280;5507;48.548;8.720;2022-12-29T10:24:50;72761.09;;;12.76;85.80
10909;BME280;5507;48.548;8.720;2022-12-29T10:27:18;72753.09;;;12.71;85.43
10909;BME280;5507;48.548;8.720;2022-12-29T10:29:48;72754.66;;;12.70;85.35
10909;BME280;5507;48.548;8.720;2022-12-29T10:35:24;72765.78;;;12.80;85.61
10909;BME280;5507;48.548;8.720;2022-12-29T10:37:58;72761.88;;;12.79;85.36
10909;BME280;5507;48.548;8.720;2022-12-29T10:40:38;72763.84;;;12.83;85.58
10909;BME280;5507;48.548;8.720;2022-12-29T10:43:53;72764.03;;;12.78;85.61
10909;BME280;5507;48.548;8.720;2022-12-29T10:46:22;72776.94;;;12.89;84.92
10909;BME280;5507;48.548;8.720;2022-12-29T10:48:48;72753.69;;;12.72;86.10
10909;BME280;5507;48.548;8.720;2022-12-29T10:51:36;72742.16;;;12.64;87.47
10909;BME280;5507;48.548;8.720;2022-12-29T10:54:06;72753.88;;;12.67;88.17
10909;BME280;5507;48.548;8.720;2022-12-29T10:59:35;72751.16;;;12.67;92.17
10909;BME280;5507;48.548;8.720;2022-12-29T11:06:57;72712.47;;;12.34;100.00
10909;BME280;5507;48.548;8.720;2022-12-29T11:09:31;72682.22;;;12.10;100.00
10909;BME280;5507;48.548;8.720;2022-12-29T11:11:57;72673.66;;;12.05;100.00
10909;BME280;5507;48.548;8.720;2022-12-29T11:14:28;72678.53;;;12.04;100.00
10909;BME280;5507;48.548;8.720;2022-12-29T11:17:02;72671.91;;;12.03;100.00
10909;BME280;5507;48.548;8.720;2022-12-29T11:19:32;72801.75;;;13.13;100.00
10909;BME280;5507;48.548;8.720;2022-12-29T11:22:29;72877.75;;;13.76;99.28
10909;BME280;5507;48.548;8.720;2022-12-29T11:25:06;72854.88;;;13.57;96.79
10909;BME280;5507;48.548;8.720;2022-12-29T11:27:35;72789.41;;;13.02;100.00
10909;BME280;5507;48.548;8.720;2022-12-29T11:30:00;72750.56;;;12.67;100.00
10909;BME280;5507;48.548;8.720;2022-12-29T11:32:28;72719.13;;;12.42;100.00
10909;BME280;5507;48.548;8.720;2022-12-29T11:34:56;72713.06;;;12.34;100.00
10909;BME280;5507;48.548;8.720;2022-12-29T11:37:29;72698.44;;;12.22;100.00
10909;BME280;5507;48.548;8.720;2022-12-29T11:40:03;72669.94;;;11.99;100.00
10909;BME280;5507;48.548;8.720;2022-12-29T11:43:02;72663.50;;;11.94;100.00
10909;BME280;5507;48.548;8.720;2022-12-29T11:45:33;72651.81;;;11.84;100.00
10909;BME280;5507;48.548;8.720;2022-12-29T11:48:18;72643.41;;;11.74;100.00
10909;BME280;5507;48.548;8.720;2022-12-29T11:50:51;72636.78;;;11.73;100.00
10909;BME280;5507;48.548;8.720;2022-12-29T11:53:23;72638.69;;;11.70;100.00
10909;BME280;5507;48.548;8.720;2022-12-29T11:55:55;72642.44;;;11.76;100.00
10909;BME280;5507;48.548;8.720;2022-12-29T11:58:27;72651.59;;;11.81;100.00
10909;BME280;5507;48.548;8.720;2022-12-29T12:00:53;72637.16;;;11.71;100.00
10909;BME280;5507;48.548;8.720;2022-12-29T12:03:23;72631.88;;;11.66;100.00
10909;BME280;5507;48.548;8.720;2022-12-29T12:05:56;72631.88;;;11.66;100.00
10909;BME280;5507;48.548;8.720;2022-12-29T12:08:54;72623.28;;;11.61;100.00
10909;BME280;5507;48.548;8.720;2022-12-29T12:11:24;72619.19;;;11.58;100.00
10909;BME280;5507;48.548;8.720;2022-12-29T12:16:25;72610.22;;;11.48;100.00
10909;BME280;5507;48.548;8.720;2022-12-29T12:18:57;72609.44;;;11.45;100.00
10909;BME280;5507;48.548;8.720;2022-12-29T12:21:37;72609.44;;;11.45;100.00
10909;BME280;5507;48.548;8.720;2022-12-29T12:24:34;72604.97;;;11.43;100.00
10909;BME280;5507;48.548;8.720;2022-12-29T12:27:21;72595.19;;;11.37;100.00
10909;BME280;5507;48.548;8.720;2022-12-29T12:30:16;72595.78;;;11.38;100.00
10909;BME280;5507;48.548;8.720;2022-12-29T12:35:44;72603.97;;;11.45;100.00
10909;BME280;5507;48.548;8.720;2022-12-29T12:38:38;72613.75;;;11.58;100.00
10909;BME280;5507;48.548;8.720;2022-12-29T12:41:13;72618.41;;;11.55;100.00
10909;BME280;5507;48.548;8.720;2022-12-29T12:44:09;72621.94;;;11.58;100.00
10909;BME280;5507;48.548;8.720;2022-12-29T12:46:34;72634.00;;;11.66;100.00
10909;BME280;5507;48.548;8.720;2022-12-29T12:51:50;72660.00;;;11.91;100.00
10909;BME280;5507;48.548;8.720;2022-12-29T12:54:34;72660.78;;;11.87;100.00
10909;BME280;5507;48.548;8.720;2022-12-29T12:57:13;72660.59;;;11.91;100.00
10909;BME280;5507;48.548;8.720;2022-12-29T13:00:07;72665.06;;;11.93;100.00
10909;BME280;5507;48.548;8.720;2022-12-29T13:02:43;72662.34;;;11.93;100.00
10909;BME280;5507;48.548;8.720;2022-12-29T13:22:24;72674.44;;;12.01;100.00
10909;BME280;5507;48.548;8.720;2022-12-29T13:25:27;72681.09;;;12.09;100.00
10909;BME280;5507;48.548;8.720;2022-12-29T13:36:07;72661.16;;;11.92;100.00
10909;BME280;5507;48.548;8.720;2022-12-29T13:38:48;72679.50;;;12.03;100.00
10909;BME280;5507;48.548;8.720;2022-12-29T13:41:30;72674.03;;;12.03;100.00
10909;BME280;5507;48.548;8.720;2022-12-29T13:43:58;72675.22;;;12.04;100.00
10909;BME280;5507;48.548;8.720;2022-12-29T13:46:28;72672.09;;;11.99;100.00
10909;BME280;5507;48.548;8.720;2022-12-29T13:49:04;72671.91;;;12.03;100.00
10909;BME280;5507;48.548;8.720;2022-12-29T13:51:32;72683.41;;;12.11;100.00
10909;BME280;5507;48.548;8.720;2022-12-29T13:54:15;72678.13;;;12.06;100.00
10909;BME280;5507;48.548;8.720;2022-12-29T13:56:52;72681.09;;;12.09;100.00
10909;BME280;5507;48.548;8.720;2022-12-29T14:05:03;72674.22;;;12.05;100.00
10909;BME280;5507;48.548;8.720;2022-12-29T14:07:36;72655.72;;;11.85;100.00
10909;BME280;5507;48.548;8.720;2022-12-29T14:10:02;72646.91;;;11.77;100.00
10909;BME280;5507;48.548;8.720;2022-12-29T14:12:40;72640.47;;;11.72;100.00
10909;BME280;5507;48.548;8.720;2022-12-29T14:17:34;72615.50;;;11.52;100.00
10909;BME280;5507;48.548;8.720;2022-12-29T14:19:59;72614.91;;;11.52;100.00
10909;BME280;5507;48.548;8.720;2022-12-29T14:22:26;72621.16;;;11.55;100.00
10909;BME280;5507;48.548;8.720;2022-12-29T14:24:53;72607.88;;;11.46;100.00
10909;BME280;5507;48.548;8.720;2022-12-29T14:29:45;72589.38;;;11.32;100.00
10909;BME280;5507;48.548;8.720;2022-12-29T14:34:55;72585.84;;;11.29;100.00
10909;BME280;5507;48.548;8.720;2022-12-29T14:37:29;72586.03;;;11.24;100.00
10909;BME280;5507;48.548;8.720;2022-12-29T14:40:25;72573.16;;;11.20;100.00
10909;BME280;5507;48.548;8.720;2022-12-29T14:42:54;72577.47;;;11.19;100.00
10909;BME280;5507;48.548;8.720;2022-12-29T14:47:47;72573.94;;;11.16;100.00
10909;BME280;5507;48.548;8.720;2022-12-29T14:52:46;72573.38;;;11.16;100.00
10909;BME280;5507;48.548;8.720;2022-12-29T14:57:49;72579.19;;;11.21;100.00
10909;BME280;5507;48.548;8.720;2022-12-29T15:00:18;72584.06;;;11.20;100.00
10909;BME280;5507;48.548;8.720;2022-12-29T15:02:52;72578.06;;;11.20;100.00
10909;BME280;5507;48.548;8.720;2022-12-29T15:05:42;72583.09;;;11.22;100.00
10909;BME280;5507;48.548;8.720;2022-12-29T15:08:10;72583.28;;;11.24;100.00
10909;BME280;5507;48.548;8.720;2022-12-29T15:10:43;72587.41;;;11.28;100.00
10909;BME280;5507;48.548;8.720;2022-12-29T15:13:34;72579.41;;;11.23;100.00
10909;BME280;5507;48.548;8.720;2022-12-29T15:15:59;72582.72;;;11.24;100.00
10909;BME280;5507;48.548;8.720;2022-12-29T15:18:28;72573.56;;;11.18;100.00
10909;BME280;5507;48.548;8.720;2022-12-29T15:20:56;72571.78;;;11.17;100.00
10909;BME280;5507;48.548;8.720;2022-12-29T15:23:23;72570.66;;;11.16;100.00
10909;BME280;5507;48.548;8.720;2022-12-29T15:26:00;72580.97;;;11.22;100.00
10909;BME280;5507;48.548;8.720;2022-12-29T15:28:28;72579.00;;;11.18;100.00
10909;BME280;5507;48.548;8.720;2022-12-29T15:31:06;72572.38;;;11.17;100.00
10909;BME280;5507;48.548;8.720;2022-12-29T15:33:38;72564.78;;;11.11;100.00
10909;BME280;5507;48.548;8.720;2022-12-29T15:36:10;72575.50;;;11.15;100.00
10909;BME280;5507;48.548;8.720;2022-12-29T15:38:37;72566.72;;;11.08;100.00
10909;BME280;5507;48.548;8.720;2022-12-29T15:41:06;72558.16;;;11.03;100.00
10909;BME280;5507;48.548;8.720;2022-12-29T15:43:38;72550.53;;;10.96;100.00
10909;BME280;5507;48.548;8.720;2022-12-29T15:46:10;72557.75;;;10.98;100.00
10909;BME280;5507;48.548;8.720;2022-12-29T15:48:38;72550.16;;;10.98;100.00
10909;BME280;5507;48.548;8.720;2022-12-29T15:51:29;72560.09;;;11.00;100.00
10909;BME280;5507;48.548;8.720;2022-12-29T15:53:57;72557.38;;;11.00;100.00
10909;BME280;5507;48.548;8.720;2022-12-29T15:56:22;72550.53;;;10.96;100.00
10909;BME280;5507;48.548;8.720;2022-12-29T15:58:50;72541.00;;;10.93;100.00
10909;BME280;5507;48.548;8.720;2022-12-29T16:01:24;72555.81;;;11.01;100.00
10909;BME280;5507;48.548;8.720;2022-12-29T16:03:52;72551.13;;;10.97;100.00
10909;BME280;5507;48.548;8.720;2022-12-29T16:06:35;72550.34;;;10.94;100.00
10909;BME280;5507;48.548;8.720;2022-12-29T16:09:15;72542.34;;;10.89;100.00
10909;BME280;5507;48.548;8.720;2022-12-29T16:11:51;72528.72;;;10.75;100.00
10909;BME280;5507;48.548;8.720;2022-12-29T16:14:20;72519.53;;;10.69;100.00
10909;BME280;5507;48.548;8.720;2022-12-29T16:16:47;72509.59;;;10.61;100.00
10909;BME280;5507;48.548;8.720;2022-12-29T16:19:19;72509.00;;;10.60;100.00
10909;BME280;5507;48.548;8.720;2022-12-29T16:21:47;72506.69;;;10.58;100.00